Time;durP1;ratioP1;P1;durP2;ratioP2;P2;SDS_P1;SDS_P2;PMS_P1;PMS_P2;Temp;Humidity;BMP_temperature;BMP_pressure;BME280_temperature;BME280_humidity;BME280_pressure;Samples;Min_cycle;Max_cycle;Signal;HPM_P1;HPM_P2
2022/08/10 00:01:52;;;;;;;3.97;1.30;;;;;;;21.00;58.44;102696.97;4948667;28;20121;-65
2022/08/10 00:04:18;;;;;;;;;;;;;;;21.25;56.86;102698.19;4951735;28;20056;-66
2022/08/10 00:06:44;;;;;;;2.50;1.40;;;;;;;21.01;58.35;102695.22;4949050;28;19922;-65
2022/08/10 00:09:10;;;;;;;5.32;1.40;;;;;;;20.93;58.26;102696.84;4950129;28;20539;-65
2022/08/10 00:11:35;;;;;;;2.70;1.45;;;;;;;20.85;58.40;102694.13;4950821;28;20039;-65
2022/08/10 00:14:00;;;;;;;2.67;1.52;;;;;;;20.87;58.57;102693.31;4951617;28;20031;-65
2022/08/10 00:16:26;;;;;;;3.83;1.25;;;;;;;20.87;58.19;102695.03;4950751;28;20040;-65
2022/08/10 00:18:51;;;;;;;2.60;1.45;;;;;;;20.82;58.51;102684.50;4947792;28;20037;-66
2022/08/10 00:21:17;;;;;;;3.38;1.70;;;;;;;20.69;58.47;102687.81;4950832;28;20039;-66
2022/08/10 00:23:42;;;;;;;4.57;1.55;;;;;;;20.55;58.82;102682.34;4948294;28;20142;-65
2022/08/10 00:26:07;;;;;;;3.85;1.40;;;;;;;20.55;58.91;102679.72;4945570;28;20270;-65
2022/08/10 00:28:33;;;;;;;2.13;1.40;;;;;;;20.56;58.79;102680.59;4971867;28;20113;-65
2022/08/10 00:30:59;;;;;;;2.03;1.40;;;;;;;20.61;58.74;102684.16;4949796;29;20035;-65
2022/08/10 00:33:24;;;;;;;4.63;1.42;;;;;;;20.61;58.75;102681.56;4949078;28;20088;-65
2022/08/10 00:35:50;;;;;;;2.40;1.50;;;;;;;20.52;59.17;102674.47;4949541;28;20101;-64
2022/08/10 00:38:16;;;;;;;3.55;1.40;;;;;;;20.44;58.81;102676.03;4950452;28;20038;-64
2022/08/10 00:40:41;;;;;;;4.00;1.63;;;;;;;20.47;58.96;102683.09;4949682;28;20023;-64
2022/08/10 00:43:07;;;;;;;4.53;1.48;;;;;;;20.50;59.05;102676.16;4943512;28;20059;-64
2022/08/10 00:45:33;;;;;;;3.03;1.40;;;;;;;20.46;59.39;102678.72;4950685;28;20118;-65
2022/08/10 00:47:59;;;;;;;2.38;1.40;;;;;;;20.47;59.03;102665.69;4951659;28;20076;-64
2022/08/10 00:50:24;;;;;;;2.08;1.35;;;;;;;20.46;59.36;102669.16;4949173;28;20039;-65
2022/08/10 00:52:50;;;;;;;3.75;1.40;;;;;;;20.44;59.05;102660.34;4948896;28;20028;-64
2022/08/10 00:55:16;;;;;;;4.63;1.70;;;;;;;20.29;59.59;102668.84;4948168;29;20035;-64
2022/08/10 00:57:41;;;;;;;1.75;1.50;;;;;;;20.31;59.77;102663.63;4949526;28;20086;-64
2022/08/10 01:00:08;;;;;;;4.20;1.58;;;;;;;20.36;59.54;102673.28;4950736;28;20123;-65
2022/08/10 01:02:33;;;;;;;4.57;1.60;;;;;;;20.33;60.09;102668.03;4950696;28;20059;-64
2022/08/10 01:05:03;;;;;;;3.00;1.52;;;;;;;20.40;59.50;102675.97;4948765;28;20058;-64
2022/08/10 01:07:44;;;;;;;5.82;1.80;;;;;;;20.41;59.52;102677.72;4950911;28;20489;-65
2022/08/10 01:10:48;;;;;;;2.78;1.63;;;;;;;20.46;59.52;102666.53;4945328;28;20043;-64
2022/08/10 01:13:28;;;;;;;4.63;1.80;;;;;;;20.36;59.43;102665.47;4954147;28;20038;-64
2022/08/10 01:16:04;;;;;;;3.00;1.98;;;;;;;20.30;59.98;102665.34;4946940;29;20023;-64
2022/08/10 01:21:15;;;;;;;3.28;1.65;;;;;;;20.31;59.68;102661.88;4970078;28;20050;-52
2022/08/10 01:24:05;;;;;;;5.88;2.13;;;;;;;20.33;59.64;102660.19;4978091;28;20118;-53
2022/08/10 01:27:01;;;;;;;4.80;1.70;;;;;;;20.24;59.97;102661.78;4969242;28;20495;-53
2022/08/10 01:29:48;;;;;;;6.25;1.77;;;;;;;20.13;60.43;102658.97;4971708;28;20097;-53
2022/08/10 01:32:46;;;;;;;4.82;2.00;;;;;;;20.11;60.62;102660.69;4957792;28;20046;-52
2022/08/10 01:35:17;;;;;;;4.32;2.10;;;;;;;20.08;60.69;102656.31;4958935;28;20035;-53
2022/08/10 01:37:54;;;;;;;2.80;2.05;;;;;;;20.05;60.92;102661.47;4968993;28;20065;-53
2022/08/10 01:40:23;;;;;;;3.85;2.20;;;;;;;20.00;60.66;102659.63;4961773;28;20034;-53
2022/08/10 01:42:50;;;;;;;3.08;2.10;;;;;;;19.97;61.06;102652.63;4963409;28;20042;-52
2022/08/10 01:45:17;;;;;;;3.42;2.20;;;;;;;19.94;61.61;102657.78;4966775;28;20031;-53
2022/08/10 01:50:34;;;;;;;3.20;2.50;;;;;;;19.89;61.57;102661.16;4966625;28;20533;-53
2022/08/10 01:53:06;;;;;;;3.88;2.30;;;;;;;19.75;61.92;102663.50;4965301;28;20167;-52
2022/08/10 01:55:33;;;;;;;4.18;2.20;;;;;;;19.77;62.17;102664.41;4966051;28;20035;-54
2022/08/10 01:58:03;;;;;;;3.25;2.50;;;;;;;19.75;61.88;102666.13;4965360;28;20038;-52
2022/08/10 02:00:32;;;;;;;3.35;2.58;;;;;;;19.67;61.89;102657.28;4966739;28;20059;-51
2022/08/10 02:02:59;;;;;;;3.45;2.28;;;;;;;19.71;62.04;102665.19;4963208;28;20054;-52
2022/08/10 02:05:28;;;;;;;2.90;2.58;;;;;;;19.68;62.26;102659.91;4971081;28;20452;-52
2022/08/10 02:07:56;;;;;;;;;;;;;;;19.95;60.72;102666.47;4968780;28;20027;-53
2022/08/10 02:10:23;;;;;;;5.45;2.70;;;;;;;19.66;62.23;102650.31;4967322;28;20025;-52
2022/08/10 02:12:49;;;;;;;4.05;2.70;;;;;;;19.56;62.54;102659.66;4967348;28;20738;-51
2022/08/10 02:15:19;;;;;;;5.47;2.63;;;;;;;19.60;62.28;102653.69;4965397;28;20019;-53
2022/08/10 02:17:50;;;;;;;5.65;2.92;;;;;;;19.59;62.48;102651.88;4966223;28;20038;-53
2022/08/10 02:20:21;;;;;;;4.13;2.70;;;;;;;19.62;62.32;102654.56;4965861;28;20495;-51
2022/08/10 02:23:01;;;;;;;5.50;3.05;;;;;;;19.62;62.39;102649.34;4964879;28;20046;-53
2022/08/10 02:25:29;;;;;;;3.28;2.70;;;;;;;19.55;62.52;102647.44;4964594;28;20389;-52
2022/08/10 02:27:54;;;;;;;5.65;2.75;;;;;;;19.53;62.63;102649.13;4963720;28;20035;-52
2022/08/10 02:30:21;;;;;;;3.83;3.20;;;;;;;19.47;62.90;102649.00;4962765;28;20390;-53
2022/08/10 02:32:48;;;;;;;4.22;3.05;;;;;;;19.53;62.79;102651.75;4966630;28;20023;-52
2022/08/10 02:35:14;;;;;;;4.45;2.90;;;;;;;19.44;63.86;102651.56;4966489;28;20398;-52
2022/08/10 02:37:44;;;;;;;5.40;3.10;;;;;;;19.45;63.48;102651.59;4968145;28;20038;-53
2022/08/10 02:40:11;;;;;;;3.95;2.90;;;;;;;19.40;63.20;102648.00;4969145;28;20046;-52
2022/08/10 02:42:53;;;;;;;4.28;2.92;;;;;;;19.46;62.82;102658.56;4967299;28;20502;-52
2022/08/10 02:45:27;;;;;;;8.48;3.63;;;;;;;19.41;62.96;102659.31;4970890;28;20058;-50
2022/08/10 02:48:17;;;;;;;6.25;3.35;;;;;;;19.43;62.72;102647.22;4967084;28;20141;-52
2022/08/10 02:51:07;;;;;;;5.00;3.13;;;;;;;19.32;63.57;102653.94;4963463;28;20035;-51
2022/08/10 02:53:50;;;;;;;6.32;3.10;;;;;;;19.39;63.21;102646.25;4968297;28;20029;-52
2022/08/10 02:56:24;;;;;;;10.85;3.20;;;;;;;19.27;63.75;102646.00;4968714;28;20386;-54
2022/08/10 02:59:12;;;;;;;5.90;3.20;;;;;;;19.29;63.26;102645.22;4965209;28;20048;-53
2022/08/10 03:01:43;;;;;;;3.47;3.17;;;;;;;19.19;64.33;102640.66;4968462;28;20146;-53
2022/08/10 03:04:22;;;;;;;4.18;3.40;;;;;;;19.28;63.54;102640.81;4968954;28;20079;-53
2022/08/10 03:06:59;;;;;;;5.03;3.20;;;;;;;19.20;64.25;102637.19;4965613;28;20031;-52
2022/08/10 03:09:27;;;;;;;5.25;3.08;;;;;;;19.13;64.32;102632.69;4968474;28;20027;-53
2022/08/10 03:11:54;;;;;;;4.22;3.22;;;;;;;19.06;64.45;102629.94;4969084;28;20386;-51
2022/08/10 03:14:21;;;;;;;4.65;3.60;;;;;;;19.03;64.86;102628.13;4968456;28;20035;-53
2022/08/10 03:16:49;;;;;;;3.65;3.28;;;;;;;19.06;65.09;102627.34;4968550;28;20428;-52
2022/08/10 03:19:19;;;;;;;5.45;3.42;;;;;;;19.04;64.64;102632.50;4968708;28;20083;-53
2022/08/10 03:21:45;;;;;;;6.90;3.30;;;;;;;18.99;65.19;102623.72;4968648;28;20494;-53
2022/08/10 03:24:11;;;;;;;6.10;3.28;;;;;;;18.97;64.83;102633.22;4968044;28;20125;-51
2022/08/10 03:26:37;;;;;;;4.35;3.10;;;;;;;18.91;65.25;102627.88;4969766;28;20577;-53
2022/08/10 03:29:04;;;;;;;4.68;3.15;;;;;;;18.92;64.95;102624.41;4966410;28;20035;-51
2022/08/10 03:31:32;;;;;;;6.00;3.40;;;;;;;18.92;65.27;102624.41;4969230;28;20426;-52
2022/08/10 03:34:00;;;;;;;5.30;3.45;;;;;;;18.90;65.40;102618.28;4966919;28;20062;-52
2022/08/10 03:36:26;;;;;;;4.17;3.37;;;;;;;18.89;65.25;102617.41;4967973;28;20527;-52
2022/08/10 03:38:51;;;;;;;6.93;3.53;;;;;;;18.84;65.47;102623.38;4967550;28;20376;-52
2022/08/10 03:41:21;;;;;;;4.25;3.15;;;;;;;18.84;65.48;102623.38;4969180;28;20395;-52
2022/08/10 03:43:48;;;;;;;4.43;3.08;;;;;;;18.75;65.68;102632.75;4967911;28;20446;-51
2022/08/10 03:46:17;;;;;;;4.95;3.17;;;;;;;18.72;66.09;102632.66;4966778;28;20532;-52
2022/08/10 03:48:43;;;;;;;3.40;2.90;;;;;;;18.73;66.31;102629.22;4966134;28;20058;-51
2022/08/10 03:51:10;;;;;;;3.50;2.92;;;;;;;18.73;66.04;102630.94;4964061;28;20541;-53
2022/08/10 03:53:36;;;;;;;3.97;3.13;;;;;;;18.69;66.33;102635.22;4967824;28;20030;-52
2022/08/10 03:56:02;;;;;;;6.28;3.10;;;;;;;18.66;66.26;102632.50;4967322;28;20030;-52
2022/08/10 03:58:27;;;;;;;3.90;3.17;;;;;;;18.64;66.49;102630.72;4968351;28;20084;-52
2022/08/10 04:00:54;;;;;;;5.93;3.10;;;;;;;18.65;66.76;102632.47;4967497;28;20478;-52
2022/08/10 04:03:20;;;;;;;4.70;3.20;;;;;;;18.64;66.48;102634.19;4968246;28;20486;-52
2022/08/10 04:05:45;;;;;;;3.30;3.00;;;;;;;18.59;66.83;102630.59;4966124;28;20027;-52
2022/08/10 04:08:12;;;;;;;4.38;3.15;;;;;;;18.57;66.93;102629.69;4967101;28;20065;-52
2022/08/10 04:10:38;;;;;;;4.13;3.10;;;;;;;18.56;66.66;102632.25;4968536;28;20031;-51
2022/08/10 04:13:03;;;;;;;4.18;2.90;;;;;;;18.56;67.08;102634.84;4966585;28;20068;-53
2022/08/10 04:15:28;;;;;;;4.30;3.10;;;;;;;18.54;66.96;102624.41;4968142;28;20019;-53
2022/08/10 04:17:54;;;;;;;5.47;3.42;;;;;;;18.53;67.01;102633.06;4968833;28;20038;-53
2022/08/10 04:20:30;;;;;;;3.80;3.20;;;;;;;18.55;67.03;102631.38;4967846;28;20078;-53
2022/08/10 04:23:00;;;;;;;4.28;2.85;;;;;;;18.53;67.38;102630.47;4966265;28;20030;-53
2022/08/10 04:25:26;;;;;;;4.28;3.40;;;;;;;18.45;67.33;102635.50;4966857;28;20038;-52
2022/08/10 04:27:52;;;;;;;4.88;3.20;;;;;;;18.44;67.62;102640.66;4966709;28;20437;-53
2022/08/10 04:30:18;;;;;;;6.72;3.33;;;;;;;18.48;67.95;102639.88;4966957;28;20034;-52
2022/08/10 04:32:47;;;;;;;5.50;3.05;;;;;;;18.45;67.16;102638.09;4967291;28;20101;-49
2022/08/10 04:35:17;;;;;;;5.97;3.90;;;;;;;18.43;67.86;102633.69;4967469;28;20380;-53
2022/08/10 04:37:43;;;;;;;5.72;3.55;;;;;;;18.40;67.79;102633.63;4967299;28;20019;-52
2022/08/10 04:40:10;;;;;;;6.50;3.70;;;;;;;18.43;67.93;102637.16;4966938;28;20042;-52
2022/08/10 04:42:35;;;;;;;5.32;3.30;;;;;;;18.42;68.17;102629.31;4967140;28;20080;-52
2022/08/10 04:45:09;;;;;;;3.92;3.33;;;;;;;18.38;67.89;102635.28;4965763;28;20035;-51
2022/08/10 04:47:34;;;;;;;4.20;3.58;;;;;;;18.35;68.02;102630.03;4960993;28;21357;-53
2022/08/10 04:49:59;;;;;;;7.07;3.50;;;;;;;18.35;68.29;102633.50;4964269;28;20035;-53
2022/08/10 04:52:25;;;;;;;5.88;3.20;;;;;;;18.36;68.46;102630.06;4964902;28;20618;-52
2022/08/10 04:54:50;;;;;;;5.88;3.60;;;;;;;18.37;68.31;102626.59;4967052;28;20030;-53
2022/08/10 04:57:15;;;;;;;5.07;3.40;;;;;;;18.27;68.49;102622.03;4967195;28;20076;-52
2022/08/10 04:59:41;;;;;;;4.93;3.20;;;;;;;18.30;68.48;102622.09;4967628;28;20038;-52
2022/08/10 05:02:06;;;;;;;5.57;3.45;;;;;;;18.29;68.41;102622.06;4966324;28;20034;-52
2022/08/10 05:04:31;;;;;;;5.82;3.40;;;;;;;18.27;68.73;102627.25;4968211;28;20030;-52
2022/08/10 05:06:57;;;;;;;5.38;3.50;;;;;;;18.31;69.02;102621.25;4964491;28;20031;-52
2022/08/10 05:09:22;;;;;;;5.13;3.80;;;;;;;18.35;68.85;102622.22;4970378;28;20066;-52
2022/08/10 05:11:48;;;;;;;5.03;3.42;;;;;;;18.36;69.15;102626.56;4967372;28;20056;-52
2022/08/10 05:14:13;;;;;;;5.40;3.90;;;;;;;18.34;69.16;102620.47;4966784;28;20068;-52
2022/08/10 05:16:38;;;;;;;5.07;3.70;;;;;;;18.35;68.95;102627.41;4965802;28;20031;-53
2022/08/10 05:19:04;;;;;;;8.85;3.65;;;;;;;18.38;68.94;102631.00;4947546;28;20477;-52
2022/08/10 05:21:29;;;;;;;6.43;4.00;;;;;;;18.37;68.70;102623.13;4967604;28;20455;-53
2022/08/10 05:23:54;;;;;;;7.82;3.90;;;;;;;18.43;68.67;102631.97;4972067;28;20100;-52
2022/08/10 05:26:20;;;;;;;6.35;3.80;;;;;;;18.43;68.80;102631.97;4975660;28;20031;-52
2022/08/10 05:28:45;;;;;;;6.63;4.00;;;;;;;18.40;69.12;102637.09;4970850;28;20041;-51
2022/08/10 05:31:10;;;;;;;6.47;4.20;;;;;;;18.36;69.48;102634.38;4965322;28;20114;-52
2022/08/10 05:33:36;;;;;;;4.70;4.18;;;;;;;18.37;69.03;102639.63;4969088;28;20041;-53
2022/08/10 05:36:02;;;;;;;4.95;4.22;;;;;;;18.37;69.41;102641.34;4966143;28;20101;-53
2022/08/10 05:38:28;;;;;;;6.00;3.88;;;;;;;18.37;69.52;102641.34;4966824;28;20035;-52
2022/08/10 05:40:54;;;;;;;5.13;4.00;;;;;;;18.42;69.54;102639.75;4965395;28;20371;-50
2022/08/10 05:43:20;;;;;;;5.95;4.22;;;;;;;18.42;69.89;102644.94;4965943;28;20042;-53
2022/08/10 05:45:48;;;;;;;7.20;4.53;;;;;;;18.42;69.39;102644.94;4965885;28;20482;-53
2022/08/10 05:48:14;;;;;;;7.30;4.13;;;;;;;18.43;69.50;102641.50;4966004;28;20517;-52
2022/08/10 05:50:39;;;;;;;6.45;4.10;;;;;;;18.53;69.16;102643.47;4963025;28;20027;-49
2022/08/10 05:53:05;;;;;;;5.53;4.10;;;;;;;18.56;69.42;102645.28;4965547;28;20027;-52
2022/08/10 05:55:31;;;;;;;7.38;4.50;;;;;;;18.53;69.65;102643.47;4967315;28;20023;-53
2022/08/10 05:57:58;;;;;;;7.28;4.47;;;;;;;18.56;69.55;102646.16;4965282;28;20118;-52
2022/08/10 06:00:25;;;;;;;6.68;4.43;;;;;;;18.56;69.67;102648.75;4962990;28;20556;-52
2022/08/10 06:02:55;;;;;;;10.02;4.55;;;;;;;18.57;69.41;102650.53;4966181;28;20037;-53
2022/08/10 06:05:23;;;;;;;4.85;4.32;;;;;;;18.62;69.52;102653.22;4966172;28;20512;-53
2022/08/10 06:07:58;;;;;;;6.00;4.60;;;;;;;18.64;69.50;102651.56;4965583;28;20048;-52
2022/08/10 06:10:24;;;;;;;5.32;4.20;;;;;;;18.72;69.51;102650.03;4960049;28;20121;-52
2022/08/10 06:14:59;;;;;;;6.60;4.30;;;;;;;18.71;69.46;102646.56;4968249;28;20433;-52
2022/08/10 06:15:37;;;;;;;11.68;4.95;;;;;;;18.84;69.13;102650.31;4966285;28;20043;-53
2022/08/10 06:18:04;;;;;;;5.50;4.05;;;;;;;18.93;69.23;102642.72;4969032;28;20035;-52
2022/08/10 06:20:30;;;;;;;6.35;4.35;;;;;;;19.04;68.59;102648.13;4968252;28;20087;-53
2022/08/10 06:23:00;;;;;;;7.28;4.53;;;;;;;19.09;68.49;102640.41;4968853;28;20394;-53
2022/08/10 06:25:28;;;;;;;10.57;4.53;;;;;;;19.15;68.63;102648.38;4970175;28;20023;-53
2022/08/10 06:27:56;;;;;;;7.70;4.35;;;;;;;19.24;68.24;102641.63;4969051;28;20035;-52
2022/08/10 06:30:23;;;;;;;6.57;4.35;;;;;;;19.34;67.99;102647.00;4976520;28;20486;-52
2022/08/10 06:32:50;;;;;;;5.63;4.50;;;;;;;19.42;67.91;102640.25;4968296;28;20386;-52
2022/08/10 06:35:17;;;;;;;6.20;4.47;;;;;;;19.49;67.29;102634.28;4969265;28;20031;-51
2022/08/10 06:37:43;;;;;;;10.23;4.13;;;;;;;19.55;67.11;102644.84;4968745;28;20059;-53
2022/08/10 06:40:10;;;;;;;6.40;4.45;;;;;;;19.61;67.25;102642.38;4968807;28;20045;-52
2022/08/10 06:42:39;;;;;;;6.90;4.40;;;;;;;19.67;66.95;102639.00;4968793;28;20053;-52
2022/08/10 06:45:10;;;;;;;6.72;4.53;;;;;;;19.74;66.93;102641.75;4968749;28;20054;-52
2022/08/10 06:47:43;;;;;;;6.40;4.28;;;;;;;19.85;66.61;102641.09;4969026;28;20026;-52
2022/08/10 06:50:20;;;;;;;8.52;4.57;;;;;;;19.93;67.13;102642.97;4968726;28;20080;-53
2022/08/10 06:52:49;;;;;;;7.55;4.60;;;;;;;19.95;65.84;102643.84;4967366;28;20023;-51
2022/08/10 06:55:14;;;;;;;;;;;;;;;20.09;65.74;102641.50;4969515;28;20034;-51
2022/08/10 06:57:41;;;;;;;6.10;4.50;;;;;;;20.13;65.33;102643.31;4968826;28;19936;-53
2022/08/10 07:00:08;;;;;;;5.72;4.38;;;;;;;20.22;64.97;102645.19;4968625;28;20027;-52
2022/08/10 07:02:47;;;;;;;6.55;4.25;;;;;;;20.32;65.37;102648.00;4966737;28;20041;-51
2022/08/10 07:05:24;;;;;;;6.90;4.68;;;;;;;20.39;64.88;102651.59;4966037;28;20034;-51
2022/08/10 07:07:53;;;;;;;8.07;4.57;;;;;;;20.47;64.56;102644.75;4968067;28;20098;-53
2022/08/10 07:10:21;;;;;;;10.68;4.40;;;;;;;20.59;64.26;102646.69;4968525;28;20038;-53
2022/08/10 07:12:49;;;;;;;7.03;4.63;;;;;;;20.72;63.48;102653.84;4969032;28;20447;-52
2022/08/10 07:15:17;;;;;;;7.65;4.60;;;;;;;20.77;63.19;102652.19;4967444;28;20057;-53
2022/08/10 07:17:43;;;;;;;6.35;4.47;;;;;;;20.91;62.93;102659.34;4969574;28;20066;-53
2022/08/10 07:20:15;;;;;;;5.60;4.30;;;;;;;20.99;62.57;102653.38;4967107;28;20478;-53
2022/08/10 07:22:42;;;;;;;5.20;4.38;;;;;;;21.08;62.38;102655.22;4969026;28;20470;-52
2022/08/10 07:25:10;;;;;;;5.93;4.22;;;;;;;21.21;61.68;102664.09;4967070;28;20661;-53
2022/08/10 07:27:38;;;;;;;8.52;4.40;;;;;;;21.30;61.18;102659.91;4969020;28;20110;-52
2022/08/10 07:30:04;;;;;;;5.15;4.47;;;;;;;21.39;60.47;102654.75;4967899;28;20498;-52
2022/08/10 07:32:33;;;;;;;6.13;4.07;;;;;;;21.45;61.31;102650.47;4964680;28;20032;-53
2022/08/10 07:34:59;;;;;;;;;;;;;;;21.56;61.64;102654.97;5048236;28;20932;-53
2022/08/10 07:37:26;;;;;;;8.55;3.83;;;;;;;21.67;60.38;102655.09;4968431;28;19917;-53
2022/08/10 07:39:53;;;;;;;6.03;3.95;;;;;;;21.68;59.24;102656.84;4968317;28;20115;-52
2022/08/10 07:42:21;;;;;;;7.60;4.20;;;;;;;21.78;58.68;102648.22;4966808;28;20532;-54
2022/08/10 07:44:49;;;;;;;5.05;3.92;;;;;;;21.87;58.81;102653.53;4967648;28;20486;-53
2022/08/10 07:47:18;;;;;;;5.07;3.92;;;;;;;21.90;59.22;102650.97;4968415;28;20114;-51
2022/08/10 07:49:46;;;;;;;6.13;3.80;;;;;;;22.00;58.18;102648.41;4965956;28;20501;-52
2022/08/10 07:52:12;;;;;;;5.57;3.27;;;;;;;22.09;58.85;102646.78;4966440;28;20023;-53
2022/08/10 07:54:41;;;;;;;8.15;3.63;;;;;;;22.18;57.97;102652.09;4968948;28;20084;-51
2022/08/10 07:57:10;;;;;;;4.22;2.97;;;;;;;22.29;57.70;102652.19;4972631;28;20375;-53
2022/08/10 07:59:36;;;;;;;;;;;;;;;22.34;58.79;102647.00;4967764;28;20026;-53
2022/08/10 08:02:05;;;;;;;7.78;3.47;;;;;;;22.37;57.30;102658.34;4970455;28;19932;-53
2022/08/10 08:04:31;;;;;;;3.70;2.90;;;;;;;22.53;57.08;102653.25;4966365;28;20160;-53
2022/08/10 08:06:58;;;;;;;7.05;3.28;;;;;;;22.56;56.50;102659.38;4968094;28;20533;-53
2022/08/10 08:09:26;;;;;;;4.88;3.47;;;;;;;22.68;56.16;102650.72;4966190;28;20039;-53
2022/08/10 08:11:53;;;;;;;6.72;3.35;;;;;;;22.74;56.11;102656.00;4967663;28;20030;-53
2022/08/10 08:14:21;;;;;;;5.90;3.05;;;;;;;22.78;55.37;102657.78;4967228;28;20042;-53
2022/08/10 08:16:49;;;;;;;6.40;3.45;;;;;;;22.84;54.91;102668.28;4965995;28;20478;-52
2022/08/10 08:19:16;;;;;;;5.40;3.00;;;;;;;22.88;55.46;102662.25;4966051;28;20090;-51
2022/08/10 08:21:43;;;;;;;4.65;3.00;;;;;;;22.95;55.15;102657.91;4968696;28;20033;-53
2022/08/10 08:24:10;;;;;;;5.18;3.17;;;;;;;22.97;54.32;102656.16;4967190;28;20573;-53
2022/08/10 08:26:35;;;;;;;5.03;3.10;;;;;;;23.09;53.94;102657.97;4966994;28;20106;-52
2022/08/10 08:29:01;;;;;;;7.53;3.20;;;;;;;23.11;53.45;102659.72;4967157;28;20113;-52
2022/08/10 08:31:28;;;;;;;5.05;2.70;;;;;;;23.17;53.78;102648.38;4968116;28;20030;-52
2022/08/10 08:33:56;;;;;;;4.97;2.65;;;;;;;23.20;52.87;102657.13;4965661;28;20039;-53
2022/08/10 08:36:22;;;;;;;8.50;2.80;;;;;;;23.24;52.22;102658.03;4967900;28;20106;-52
2022/08/10 08:38:49;;;;;;;6.82;2.60;;;;;;;23.35;51.91;102648.44;4962650;28;20058;-53
2022/08/10 08:41:35;;;;;;;6.05;2.65;;;;;;;23.43;52.85;102641.47;4965961;28;20108;-53
2022/08/10 08:44:13;;;;;;;7.15;2.40;;;;;;;23.43;51.60;102643.22;4963858;28;20042;-53
2022/08/10 08:46:53;;;;;;;3.65;2.17;;;;;;;23.53;50.75;102645.84;4966631;28;20031;-53
2022/08/10 08:49:41;;;;;;;4.20;2.50;;;;;;;23.66;50.46;102644.19;4966039;28;20410;-52
2022/08/10 08:52:15;;;;;;;5.60;2.53;;;;;;;23.64;50.59;102645.94;4967679;28;20070;-54
2022/08/10 08:54:51;;;;;;;4.93;2.42;;;;;;;23.74;49.44;102646.84;4966924;28;20027;-51
2022/08/10 08:57:55;;;;;;;5.15;2.03;;;;;;;23.82;49.35;102647.72;4967823;28;20022;-53
2022/08/10 09:00:49;;;;;;;7.38;2.33;;;;;;;23.97;50.16;102646.88;4967585;28;20057;-51
2022/08/10 09:03:39;;;;;;;6.15;2.47;;;;;;;23.98;49.07;102649.50;4966975;28;20449;-53
2022/08/10 09:06:14;;;;;;;9.65;2.10;;;;;;;24.05;48.67;102648.59;4966859;28;20031;-53
2022/08/10 09:08:40;;;;;;;6.78;2.10;;;;;;;24.11;48.82;102638.97;4965526;28;20101;-53
2022/08/10 09:11:17;;;;;;;7.90;2.25;;;;;;;24.19;49.63;102645.97;4967702;28;20133;-53
2022/08/10 09:14:05;;;;;;;4.28;2.35;;;;;;;24.28;47.79;102638.09;4967419;28;20065;-53
2022/08/10 09:16:46;;;;;;;7.70;2.30;;;;;;;24.34;47.93;102639.88;4968281;28;20532;-53
2022/08/10 09:19:39;;;;;;;8.05;2.50;;;;;;;24.41;46.88;102633.72;4966892;28;20502;-53
2022/08/10 09:22:15;;;;;;;6.88;2.47;;;;;;;24.48;46.58;102635.47;4965730;28;20640;-53
2022/08/10 09:25:01;;;;;;;8.18;2.30;;;;;;;24.56;46.50;102636.31;4967619;28;20027;-52
2022/08/10 09:27:44;;;;;;;6.45;2.28;;;;;;;24.62;46.95;102627.53;4964850;28;20027;-52
2022/08/10 09:30:14;;;;;;;6.90;2.45;;;;;;;24.70;45.49;102624.91;4965994;28;20027;-53
2022/08/10 09:32:53;;;;;;;5.95;2.13;;;;;;;24.67;45.81;102615.25;4965492;28;20442;-53
2022/08/10 09:35:48;;;;;;;;;;;;;;;24.70;46.92;102611.75;4967705;28;20127;-53
2022/08/10 09:38:34;;;;;;;6.93;2.50;;;;;;;24.71;46.64;102608.25;4906703;28;20297;-52
2022/08/10 09:41:22;;;;;;;9.20;2.83;;;;;;;24.76;46.43;102614.38;4965992;28;20007;-52
2022/08/10 09:43:50;;;;;;;4.35;2.50;;;;;;;24.86;43.65;102613.44;4962239;28;20113;-53
2022/08/10 09:46:41;;;;;;;6.00;2.30;;;;;;;24.91;45.45;102609.03;4965861;28;20371;-54
2022/08/10 09:49:26;;;;;;;6.97;2.45;;;;;;;24.98;45.30;102602.88;4965793;28;20030;-52
2022/08/10 09:52:14;;;;;;;5.35;2.47;;;;;;;25.03;45.14;102594.97;4966052;28;20046;-53
2022/08/10 09:54:49;;;;;;;6.15;2.10;;;;;;;25.08;44.49;102601.97;4959261;28;20119;-54
2022/08/10 09:57:23;;;;;;;4.88;2.28;;;;;;;25.19;44.05;102599.31;4967127;28;20093;-52
2022/08/10 10:00:20;;;;;;;4.25;2.40;;;;;;;25.25;43.64;102598.41;4964921;28;20031;-49
2022/08/10 10:02:51;;;;;;;6.73;2.50;;;;;;;25.32;42.67;102600.97;4966696;28;20443;-53
2022/08/10 10:05:43;;;;;;;5.63;2.80;;;;;;;25.36;43.25;102596.56;4966805;28;20692;-52
2022/08/10 10:08:17;;;;;;;5.93;2.60;;;;;;;25.49;43.01;102589.47;4964219;28;20686;-53
2022/08/10 10:11:15;;;;;;;7.40;2.28;;;;;;;25.56;42.96;102581.53;4965903;28;20046;-52
2022/08/10 10:14:07;;;;;;;5.87;2.30;;;;;;;25.71;43.25;102585.78;4965103;28;20070;-53
2022/08/10 10:16:42;;;;;;;6.57;2.30;;;;;;;25.77;43.35;102582.25;4965824;28;20441;-51
2022/08/10 10:19:32;;;;;;;6.45;2.42;;;;;;;25.81;41.86;102578.72;4965096;28;20082;-53
2022/08/10 10:22:22;;;;;;;7.55;2.58;;;;;;;25.87;42.50;102568.13;4965455;28;20019;-53
2022/08/10 10:25:02;;;;;;;6.53;2.50;;;;;;;25.91;42.48;102572.50;4962804;28;20120;-53
2022/08/10 10:27:40;;;;;;;4.43;2.20;;;;;;;25.94;41.25;102578.59;4965204;28;20031;-53
2022/08/10 10:30:09;;;;;;;5.07;2.40;;;;;;;25.95;41.07;102566.28;4966264;28;20022;-53
2022/08/10 10:32:53;;;;;;;5.90;2.35;;;;;;;25.96;41.04;102573.31;4965279;28;20030;-50
2022/08/10 10:35:39;;;;;;;6.32;2.45;;;;;;;26.05;41.02;102564.47;4966650;28;20141;-53
2022/08/10 10:38:07;;;;;;;4.28;2.47;;;;;;;26.11;40.93;102569.66;4964037;28;20470;-54
2022/08/10 10:40:42;;;;;;;6.13;2.53;;;;;;;26.15;41.31;102564.38;4966154;28;20433;-53
2022/08/10 10:43:42;;;;;;;6.65;2.50;;;;;;;26.17;40.23;102559.06;4966334;28;20567;-52
2022/08/10 10:46:35;;;;;;;5.15;2.30;;;;;;;26.18;40.68;102558.16;4964497;28;20031;-52
2022/08/10 10:49:19;;;;;;;4.20;2.45;;;;;;;26.26;40.97;102548.41;4962794;28;20027;-54
2022/08/10 10:51:52;;;;;;;4.07;2.50;;;;;;;26.35;41.46;102542.19;4963710;28;21284;-53
2022/08/10 10:54:31;;;;;;;5.13;2.70;;;;;;;26.38;39.71;102539.50;4967074;28;20106;-53
2022/08/10 10:56:56;;;;;;;5.65;2.45;;;;;;;26.44;39.75;102542.09;4957275;28;20038;-52
2022/08/10 10:59:50;;;;;;;4.28;2.40;;;;;;;26.45;40.59;102538.56;4969629;28;20372;-52
2022/08/10 11:02:18;;;;;;;6.65;2.40;;;;;;;26.48;38.87;102538.53;4968148;28;20022;-53
2022/08/10 11:04:55;;;;;;;3.28;2.30;;;;;;;26.62;39.49;102530.44;4968234;28;20027;-53
2022/08/10 11:07:34;;;;;;;5.20;2.55;;;;;;;26.63;37.95;102521.63;4968853;28;20034;-54
2022/08/10 11:10:21;;;;;;;9.52;2.60;;;;;;;26.70;39.16;102521.56;4963521;28;20054;-53
2022/08/10 11:13:11;;;;;;;5.60;2.83;;;;;;;26.72;38.87;102522.41;4964596;28;20049;-52
2022/08/10 11:15:52;;;;;;;9.68;2.80;;;;;;;26.71;38.53;102523.31;4968806;28;20042;-53
2022/08/10 11:18:26;;;;;;;5.88;2.58;;;;;;;26.72;38.85;102506.56;4967739;28;20034;-52
2022/08/10 11:21:10;;;;;;;8.95;2.50;;;;;;;26.79;39.25;102512.63;4964435;28;20552;-52
2022/08/10 11:23:39;;;;;;;5.78;2.60;;;;;;;26.79;38.21;102514.41;4968517;28;20526;-54
2022/08/10 11:26:20;;;;;;;3.75;2.30;;;;;;;26.80;38.93;102510.88;4967186;28;20035;-53
2022/08/10 11:28:53;;;;;;;8.98;2.53;;;;;;;26.85;39.13;102509.03;4967899;28;20398;-53
2022/08/10 11:31:36;;;;;;;4.70;2.38;;;;;;;26.92;37.63;102505.41;4970347;28;20101;-53
2022/08/10 11:34:10;;;;;;;6.03;2.30;;;;;;;27.02;37.93;102504.41;4964925;28;20061;-51
2022/08/10 11:37:04;;;;;;;5.72;2.53;;;;;;;27.06;38.00;102499.97;4966626;28;20029;-53
2022/08/10 11:39:47;;;;;;;5.50;2.17;;;;;;;27.12;37.01;102505.16;4966320;28;20492;-53
2022/08/10 11:42:34;;;;;;;4.18;2.45;;;;;;;27.16;37.16;102510.38;4967306;28;20034;-54
2022/08/10 11:45:10;;;;;;;5.32;2.45;;;;;;;27.18;35.85;102503.31;4965258;28;20459;-54
2022/08/10 11:48:31;;;;;;;5.55;2.33;;;;;;;27.23;36.91;102504.09;4970150;28;20042;-53
2022/08/10 11:51:00;;;;;;;5.05;2.38;;;;;;;27.31;35.35;102506.63;4925963;29;20032;-54
2022/08/10 11:53:41;;;;;;;7.13;2.75;;;;;;;27.31;34.79;102500.50;4938745;28;20369;-54
2022/08/10 11:56:11;;;;;;;3.88;2.55;;;;;;;27.29;34.08;102503.13;4956387;28;20449;-53